Time;durP1;ratioP1;P1;durP2;ratioP2;P2;SDS_P1;SDS_P2;PMS_P1;PMS_P2;Temp;Humidity;BMP_temperature;BMP_pressure;BME280_temperature;BME280_humidity;BME280_pressure;Samples;Min_cycle;Max_cycle;Signal;HPM_P1;HPM_P2
2023/10/21 00:01:38;;;;;;;5.82;3.65;;;;;;;;;;10292745;28;20080;-66
2023/10/21 00:06:38;;;;;;;12.70;3.70;;;;;;;;;;10296999;28;20552;-66
2023/10/21 00:11:36;;;;;;;11.57;4.00;;;;;;;;;;10296631;28;20071;-66
2023/10/21 00:16:35;;;;;;;11.07;4.45;;;;;;;;;;10294513;28;20091;-66
2023/10/21 00:21:34;;;;;;;8.50;3.85;;;;;;;;;;10293335;28;20048;-67
2023/10/21 00:26:43;;;;;;;8.40;3.45;;;;;;;;;;10295966;28;20044;-66
2023/10/21 00:31:41;;;;;;;7.68;3.28;;;;;;;;;;10293847;28;20080;-67
2023/10/21 00:36:39;;;;;;;10.32;4.13;;;;;;;;;;10289020;28;20071;-67
2023/10/21 00:41:39;;;;;;;24.60;5.00;;;;;;;;;;10298549;28;20084;-67
2023/10/21 00:46:38;;;;;;;11.35;3.25;;;;;;;;;;10300075;28;20186;-65
2023/10/21 00:51:39;;;;;;;11.85;4.10;;;;;;;;;;10293302;28;20080;-65
2023/10/21 00:56:37;;;;;;;11.27;4.43;;;;;;;;;;10288879;28;20542;-67
2023/10/21 01:01:36;;;;;;;11.93;4.00;;;;;;;;;;10288886;28;20529;-65
2023/10/21 01:06:35;;;;;;;8.95;3.63;;;;;;;;;;10300174;28;20072;-66
2023/10/21 01:11:33;;;;;;;10.98;3.92;;;;;;;;;;10290377;28;20076;-66
2023/10/21 01:16:31;;;;;;;11.93;3.63;;;;;;;;;;10293974;28;20087;-66
2023/10/21 01:21:31;;;;;;;10.57;3.58;;;;;;;;;;10290842;28;20072;-65
2023/10/21 01:26:30;;;;;;;9.88;3.85;;;;;;;;;;10290725;28;20068;-66
2023/10/21 01:31:32;;;;;;;8.50;3.38;;;;;;;;;;10290391;28;20098;-66
2023/10/21 01:36:30;;;;;;;7.88;3.75;;;;;;;;;;10290573;28;20069;-66
2023/10/21 01:41:28;;;;;;;12.07;3.80;;;;;;;;;;10290094;28;20060;-66
2023/10/21 01:46:28;;;;;;;7.78;3.25;;;;;;;;;;10290576;28;20069;-66
2023/10/21 01:51:27;;;;;;;7.05;3.08;;;;;;;;;;10290454;28;20091;-65
2023/10/21 01:56:25;;;;;;;9.40;4.22;;;;;;;;;;10292213;28;20065;-65
2023/10/21 02:01:23;;;;;;;9.80;3.47;;;;;;;;;;10296150;28;20075;-67
2023/10/21 02:06:23;;;;;;;11.18;3.75;;;;;;;;;;10289296;28;20077;-66
2023/10/21 02:11:22;;;;;;;11.20;3.83;;;;;;;;;;10288402;28;20074;-66
2023/10/21 02:16:20;;;;;;;10.95;3.70;;;;;;;;;;10289462;28;20087;-66
2023/10/21 02:21:19;;;;;;;7.45;3.35;;;;;;;;;;10294867;28;20524;-67
2023/10/21 02:26:19;;;;;;;11.80;4.20;;;;;;;;;;10290268;28;20542;-67
2023/10/21 02:31:17;;;;;;;10.40;3.40;;;;;;;;;;10290458;28;20080;-66
2023/10/21 02:36:16;;;;;;;8.23;3.08;;;;;;;;;;10290608;28;20556;-66
2023/10/21 02:41:14;;;;;;;10.30;3.85;;;;;;;;;;10289668;28;20069;-65
2023/10/21 02:46:14;;;;;;;10.75;4.00;;;;;;;;;;10293382;28;20069;-66
2023/10/21 02:51:13;;;;;;;9.40;3.83;;;;;;;;;;10285274;28;20515;-65
2023/10/21 02:56:13;;;;;;;9.60;3.88;;;;;;;;;;10291645;28;20064;-65
2023/10/21 03:01:16;;;;;;;13.07;4.03;;;;;;;;;;10287017;28;20548;-66
2023/10/21 03:06:14;;;;;;;9.10;4.22;;;;;;;;;;10290115;28;20068;-66
2023/10/21 03:11:14;;;;;;;11.95;3.78;;;;;;;;;;10288334;28;20072;-66
2023/10/21 03:16:13;;;;;;;18.10;4.15;;;;;;;;;;10288101;28;20083;-66
2023/10/21 03:21:13;;;;;;;9.30;4.10;;;;;;;;;;10284006;28;20079;-67
2023/10/21 03:26:11;;;;;;;9.80;3.53;;;;;;;;;;10294768;28;20080;-66
2023/10/21 03:31:10;;;;;;;9.55;3.40;;;;;;;;;;10301785;28;20080;-66
2023/10/21 03:36:08;;;;;;;12.65;3.70;;;;;;;;;;10299954;28;20075;-67
2023/10/21 03:41:08;;;;;;;19.90;4.43;;;;;;;;;;10300000;28;20072;-67
2023/10/21 03:46:07;;;;;;;9.30;3.42;;;;;;;;;;10298290;28;20072;-67
2023/10/21 03:51:07;;;;;;;5.93;3.33;;;;;;;;;;10300787;28;20483;-67
2023/10/21 03:56:05;;;;;;;9.55;4.13;;;;;;;;;;10300759;28;20075;-67
2023/10/21 04:01:05;;;;;;;7.82;2.95;;;;;;;;;;10302870;28;20068;-67
2023/10/21 04:06:03;;;;;;;8.52;3.97;;;;;;;;;;10296929;28;20064;-67
2023/10/21 04:11:02;;;;;;;12.48;4.30;;;;;;;;;;10296287;28;20554;-67
2023/10/21 04:16:00;;;;;;;8.77;3.50;;;;;;;;;;10301506;28;20092;-66
2023/10/21 04:21:00;;;;;;;14.98;4.78;;;;;;;;;;10298691;28;20309;-66
2023/10/21 04:25:58;;;;;;;8.68;3.40;;;;;;;;;;10293771;28;20067;-66
2023/10/21 04:30:56;;;;;;;9.40;3.90;;;;;;;;;;10293934;28;20470;-66
2023/10/21 04:35:56;;;;;;;13.45;3.78;;;;;;;;;;10296378;28;20139;-67
2023/10/21 04:40:56;;;;;;;7.32;3.35;;;;;;;;;;10289029;28;20087;-66
2023/10/21 04:45:54;;;;;;;8.07;3.60;;;;;;;;;;10287409;28;20076;-66
2023/10/21 04:50:52;;;;;;;10.65;3.47;;;;;;;;;;10272263;28;20072;-66
2023/10/21 04:55:50;;;;;;;9.43;4.22;;;;;;;;;;10275755;28;20479;-67
2023/10/21 05:00:50;;;;;;;12.70;4.35;;;;;;;;;;10279095;28;20079;-65
2023/10/21 05:05:48;;;;;;;6.63;3.08;;;;;;;;;;10279338;28;20075;-66
2023/10/21 05:10:46;;;;;;;10.50;4.68;;;;;;;;;;10282722;28;20073;-66
2023/10/21 05:15:45;;;;;;;7.45;3.22;;;;;;;;;;10288433;28;20072;-66
2023/10/21 05:20:44;;;;;;;8.90;4.35;;;;;;;;;;10285986;28;20525;-65
2023/10/21 05:25:42;;;;;;;12.48;4.05;;;;;;;;;;10290123;28;20064;-66
2023/10/21 05:30:42;;;;;;;9.35;4.32;;;;;;;;;;10291728;28;20087;-65
2023/10/21 05:35:40;;;;;;;10.93;4.60;;;;;;;;;;10290028;28;20068;-66
2023/10/21 05:40:41;;;;;;;10.02;3.13;;;;;;;;;;10287939;28;20091;-66
2023/10/21 05:45:39;;;;;;;15.90;3.83;;;;;;;;;;10289126;28;20069;-65
2023/10/21 05:50:38;;;;;;;14.13;3.80;;;;;;;;;;10289368;28;20064;-66
2023/10/21 05:55:41;;;;;;;15.35;3.95;;;;;;;;;;10285712;28;20084;-66
2023/10/21 06:00:40;;;;;;;13.83;4.20;;;;;;;;;;10284503;28;20459;-66
2023/10/21 06:05:38;;;;;;;10.50;4.65;;;;;;;;;;10286138;28;20079;-67
2023/10/21 06:10:36;;;;;;;8.05;3.30;;;;;;;;;;10289893;28;20503;-66
2023/10/21 06:15:38;;;;;;;13.02;6.00;;;;;;;;;;10287597;28;20088;-66
2023/10/21 06:20:36;;;;;;;17.17;6.72;;;;;;;;;;10286967;28;20072;-65
2023/10/21 06:25:34;;;;;;;17.60;5.78;;;;;;;;;;10287751;28;20087;-65
2023/10/21 06:30:35;;;;;;;22.55;7.22;;;;;;;;;;10289219;28;20082;-66
2023/10/21 06:35:35;;;;;;;17.00;6.40;;;;;;;;;;10282096;28;20301;-66
2023/10/21 06:40:33;;;;;;;16.92;6.53;;;;;;;;;;10287942;28;20167;-65
2023/10/21 06:45:49;;;;;;;19.98;5.63;;;;;;;;;;10287685;28;20074;-65
2023/10/21 06:50:48;;;;;;;8.15;5.13;;;;;;;;;;10286559;28;20076;-66
2023/10/21 06:55:47;;;;;;;15.25;6.30;;;;;;;;;;10287632;28;20099;-65
2023/10/21 07:00:45;;;;;;;17.13;5.50;;;;;;;;;;10288629;28;20072;-66
2023/10/21 07:05:43;;;;;;;13.77;6.95;;;;;;;;;;10290500;28;20068;-66
2023/10/21 07:10:43;;;;;;;21.00;6.80;;;;;;;;;;10288852;28;20072;-65
2023/10/21 07:15:41;;;;;;;15.63;5.35;;;;;;;;;;10283297;28;20088;-67
2023/10/21 07:20:39;;;;;;;13.82;4.53;;;;;;;;;;10286555;28;20079;-66
2023/10/21 07:25:38;;;;;;;11.95;4.40;;;;;;;;;;10283380;28;20456;-66
2023/10/21 07:30:37;;;;;;;14.70;5.85;;;;;;;;;;10282394;28;20518;-66
2023/10/21 07:35:36;;;;;;;5.68;3.25;;;;;;;;;;10277101;28;20068;-65
2023/10/21 07:40:34;;;;;;;18.35;7.97;;;;;;;;;;10278591;28;20056;-65
2023/10/21 07:45:33;;;;;;;17.80;5.32;;;;;;;;;;10261054;28;20076;-65
2023/10/21 07:50:33;;;;;;;18.90;7.28;;;;;;;;;;10293177;28;20072;-65
2023/10/21 07:55:31;;;;;;;34.92;10.48;;;;;;;;;;10289052;28;20076;-66
2023/10/21 08:00:29;;;;;;;21.25;8.55;;;;;;;;;;10282310;28;20072;-66
2023/10/21 08:05:28;;;;;;;30.00;8.68;;;;;;;;;;10282380;28;20068;-67
2023/10/21 08:10:29;;;;;;;23.92;7.03;;;;;;;;;;10287141;28;20509;-67
2023/10/21 08:15:29;;;;;;;28.33;7.78;;;;;;;;;;10291350;28;20507;-67
2023/10/21 08:20:27;;;;;;;17.52;6.65;;;;;;;;;;10273468;28;20491;-66
2023/10/21 08:25:25;;;;;;;13.65;5.85;;;;;;;;;;10276038;28;20072;-67
2023/10/21 08:30:26;;;;;;;19.13;6.75;;;;;;;;;;10290329;28;20065;-67
2023/10/21 08:35:24;;;;;;;16.58;6.25;;;;;;;;;;10280197;28;20068;-68
2023/10/21 08:40:23;;;;;;;16.13;5.95;;;;;;;;;;10278164;28;20069;-68
2023/10/21 08:45:21;;;;;;;17.77;6.53;;;;;;;;;;10289674;28;20080;-67
2023/10/21 08:50:21;;;;;;;16.73;6.05;;;;;;;;;;10291639;28;20072;-67
2023/10/21 08:55:20;;;;;;;15.02;6.03;;;;;;;;;;10275768;28;20094;-65
2023/10/21 09:00:19;;;;;;;18.70;5.97;;;;;;;;;;10280345;28;20068;-66
2023/10/21 09:05:17;;;;;;;16.70;5.38;;;;;;;;;;10279631;28;20073;-66
2023/10/21 09:10:17;;;;;;;15.68;5.60;;;;;;;;;;10270909;28;20083;-65
2023/10/21 09:15:16;;;;;;;18.55;6.90;;;;;;;;;;10283296;28;20088;-65
2023/10/21 09:20:15;;;;;;;18.73;9.15;;;;;;;;;;10293072;28;20095;-66
2023/10/21 09:25:15;;;;;;;16.10;7.55;;;;;;;;;;10285308;28;20513;-66
2023/10/21 09:30:16;;;;;;;16.60;6.15;;;;;;;;;;10289115;28;20083;-66
2023/10/21 09:35:16;;;;;;;14.48;6.00;;;;;;;;;;10292987;28;20087;-66
2023/10/21 09:40:15;;;;;;;13.75;5.13;;;;;;;;;;10290851;28;20068;-66
2023/10/21 09:45:15;;;;;;;24.27;7.45;;;;;;;;;;10288876;28;20481;-66
2023/10/21 09:50:16;;;;;;;20.08;5.70;;;;;;;;;;10291076;28;20085;-65
2023/10/21 09:55:14;;;;;;;20.75;6.78;;;;;;;;;;10287955;28;20493;-65
2023/10/21 10:00:19;;;;;;;13.40;5.88;;;;;;;;;;10291970;28;20076;-65
2023/10/21 10:05:20;;;;;;;14.27;4.75;;;;;;;;;;10275205;28;20088;-66
2023/10/21 10:10:19;;;;;;;14.43;4.57;;;;;;;;;;10269062;28;20096;-65
2023/10/21 10:15:31;;;;;;;14.80;4.80;;;;;;;;;;10279164;28;20088;-65
2023/10/21 10:20:31;;;;;;;17.20;5.78;;;;;;;;;;10275971;28;20088;-66
2023/10/21 10:25:33;;;;;;;14.52;6.97;;;;;;;;;;10284341;28;20072;-66
2023/10/21 10:30:31;;;;;;;15.93;5.60;;;;;;;;;;10285068;28;20072;-65
2023/10/21 10:35:32;;;;;;;19.52;6.03;;;;;;;;;;10287741;28;20510;-66
2023/10/21 10:40:34;;;;;;;20.95;6.45;;;;;;;;;;10286218;28;20076;-67
2023/10/21 10:45:33;;;;;;;19.40;6.35;;;;;;;;;;10284056;28;20079;-67
2023/10/21 10:50:36;;;;;;;16.33;5.30;;;;;;;;;;10285036;28;20088;-66
2023/10/21 10:55:34;;;;;;;12.97;5.53;;;;;;;;;;10287652;28;20125;-66
2023/10/21 11:00:33;;;;;;;19.23;6.78;;;;;;;;;;10288004;28;20068;-67
2023/10/21 11:05:31;;;;;;;11.50;4.60;;;;;;;;;;10285501;28;20076;-66
2023/10/21 11:10:32;;;;;;;16.33;7.68;;;;;;;;;;10288822;28;20490;-65
2023/10/21 11:15:31;;;;;;;18.95;5.60;;;;;;;;;;10287033;28;20096;-67
2023/10/21 11:20:30;;;;;;;20.17;5.78;;;;;;;;;;10266274;28;20065;-66
2023/10/21 11:25:28;;;;;;;9.00;4.10;;;;;;;;;;10281605;28;20079;-66
2023/10/21 11:30:28;;;;;;;20.40;5.25;;;;;;;;;;10286272;28;20076;-66
2023/10/21 11:35:26;;;;;;;11.93;4.68;;;;;;;;;;10280077;28;20084;-67
2023/10/21 11:40:25;;;;;;;12.48;5.38;;;;;;;;;;10284274;28;20533;-65
2023/10/21 11:45:23;;;;;;;18.75;5.03;;;;;;;;;;10287086;28;20099;-65
2023/10/21 11:50:24;;;;;;;21.98;4.63;;;;;;;;;;10292623;28;20087;-66
2023/10/21 11:55:38;;;;;;;18.63;5.63;;;;;;;;;;10292295;28;20080;-66
2023/10/21 12:16:33;;;;;;;15.60;5.25;;;;;;;;;;10270606;28;20088;-66
2023/10/21 12:27:32;;;;;;;9.13;5.13;;;;;;;;;;10255629;28;20569;-66
2023/10/21 12:37:52;;;;;;;12.55;4.80;;;;;;;;;;10290422;28;20072;-66
2023/10/21 12:43:20;;;;;;;10.68;4.43;;;;;;;;;;10289703;28;20076;-66
2023/10/21 12:48:10;;;;;;;12.80;4.97;;;;;;;;;;10290994;28;20076;-66
2023/10/21 12:53:09;;;;;;;18.52;3.97;;;;;;;;;;10292674;28;20122;-66
2023/10/21 12:58:08;;;;;;;10.38;4.60;;;;;;;;;;10287916;28;20490;-65
2023/10/21 13:03:10;;;;;;;13.65;4.82;;;;;;;;;;10288831;28;20069;-66
2023/10/21 13:08:11;;;;;;;12.75;4.25;;;;;;;;;;10289427;28;20106;-66
2023/10/21 13:13:11;;;;;;;17.67;4.03;;;;;;;;;;10292294;28;20072;-66
2023/10/21 13:18:09;;;;;;;14.27;4.13;;;;;;;;;;10293223;28;20065;-66
2023/10/21 13:23:08;;;;;;;14.10;3.88;;;;;;;;;;10293654;28;20083;-67
2023/10/21 13:28:08;;;;;;;16.63;4.00;;;;;;;;;;10291485;28;20076;-66
2023/10/21 13:33:07;;;;;;;19.75;4.35;;;;;;;;;;10291812;28;20490;-67
2023/10/21 13:38:06;;;;;;;11.90;3.67;;;;;;;;;;10291211;28;20076;-66
2023/10/21 13:43:05;;;;;;;20.52;5.43;;;;;;;;;;10289374;28;20065;-67
2023/10/21 13:48:08;;;;;;;10.80;3.55;;;;;;;;;;10287334;28;20463;-66
2023/10/21 13:53:14;;;;;;;13.35;4.40;;;;;;;;;;10280354;28;20081;-65
2023/10/21 13:58:14;;;;;;;11.50;3.97;;;;;;;;;;10277772;28;20115;-66
2023/10/21 14:03:15;;;;;;;16.08;5.05;;;;;;;;;;10287056;28;20075;-67
2023/10/21 14:08:14;;;;;;;15.00;5.18;;;;;;;;;;10291831;28;20068;-66
2023/10/21 14:13:15;;;;;;;12.80;5.20;;;;;;;;;;10284218;28;20076;-66
2023/10/21 14:18:15;;;;;;;14.65;5.95;;;;;;;;;;10286820;28;20068;-66
2023/10/21 14:23:15;;;;;;;16.15;5.47;;;;;;;;;;10288754;28;20072;-66
2023/10/21 14:28:14;;;;;;;12.25;4.97;;;;;;;;;;10272634;28;20095;-67
2023/10/21 14:33:12;;;;;;;21.75;6.30;;;;;;;;;;10270750;28;20081;-66
2023/10/21 14:38:12;;;;;;;27.65;8.38;;;;;;;;;;10286130;28;20072;-66
2023/10/21 14:43:11;;;;;;;20.85;6.05;;;;;;;;;;10279882;28;20076;-65
2023/10/21 14:48:10;;;;;;;26.15;6.13;;;;;;;;;;10284558;28;20068;-66
2023/10/21 14:53:09;;;;;;;21.73;5.70;;;;;;;;;;10274577;28;20502;-67
2023/10/21 14:58:09;;;;;;;15.77;5.13;;;;;;;;;;10285389;28;20072;-65
2023/10/21 15:03:08;;;;;;;24.60;5.60;;;;;;;;;;10281352;28;20437;-65
2023/10/21 15:08:06;;;;;;;29.67;5.10;;;;;;;;;;10272451;28;20492;-65
2023/10/21 15:13:05;;;;;;;18.88;5.22;;;;;;;;;;10266072;28;20064;-66
2023/10/21 15:18:05;;;;;;;16.50;4.63;;;;;;;;;;10275506;28;20274;-66
2023/10/21 15:23:04;;;;;;;20.05;5.25;;;;;;;;;;10269450;28;20079;-66
2023/10/21 15:28:04;;;;;;;16.73;5.60;;;;;;;;;;10290691;28;20485;-66
2023/10/21 15:33:02;;;;;;;18.83;5.43;;;;;;;;;;10275901;28;20095;-65
2023/10/21 15:38:03;;;;;;;24.17;5.85;;;;;;;;;;10281258;28;20079;-65
2023/10/21 15:43:01;;;;;;;15.52;5.40;;;;;;;;;;10286912;28;20085;-66
2023/10/21 15:47:59;;;;;;;13.30;6.00;;;;;;;;;;10276869;28;20307;-64
2023/10/21 15:52:58;;;;;;;13.85;5.82;;;;;;;;;;10280016;28;20079;-66
2023/10/21 15:57:57;;;;;;;18.08;6.05;;;;;;;;;;10282274;28;20127;-65
2023/10/21 16:02:55;;;;;;;14.70;6.32;;;;;;;;;;10286458;28;20068;-66
2023/10/21 16:07:54;;;;;;;30.75;7.15;;;;;;;;;;10282896;28;20077;-66
2023/10/21 16:12:57;;;;;;;21.90;6.85;;;;;;;;;;10276829;28;20076;-65
2023/10/21 16:17:55;;;;;;;15.35;6.60;;;;;;;;;;10275055;28;20537;-66
2023/10/21 16:22:53;;;;;;;14.68;7.20;;;;;;;;;;10270389;28;20071;-66
2023/10/21 16:27:51;;;;;;;20.05;8.45;;;;;;;;;;10287316;28;20064;-65
2023/10/21 16:32:51;;;;;;;17.30;7.20;;;;;;;;;;10278592;28;20515;-65
2023/10/21 16:37:49;;;;;;;13.55;6.70;;;;;;;;;;10289996;28;20072;-66
2023/10/21 16:42:47;;;;;;;18.88;7.32;;;;;;;;;;10289105;28;20564;-66
2023/10/21 16:47:46;;;;;;;18.58;6.60;;;;;;;;;;10283510;28;20072;-65
2023/10/21 16:52:46;;;;;;;19.50;7.45;;;;;;;;;;10292260;28;20064;-66
2023/10/21 16:57:44;;;;;;;15.68;6.35;;;;;;;;;;10266288;28;20156;-66
2023/10/21 17:02:43;;;;;;;13.93;6.25;;;;;;;;;;10266130;28;20070;-66
2023/10/21 17:07:41;;;;;;;21.00;6.43;;;;;;;;;;10284618;28;20069;-66
2023/10/21 17:12:41;;;;;;;15.93;6.05;;;;;;;;;;10280783;28;20482;-65
2023/10/21 17:17:40;;;;;;;9.50;6.72;;;;;;;;;;10278069;28;20084;-66
2023/10/21 17:22:38;;;;;;;17.45;6.85;;;;;;;;;;10287548;28;20060;-66
2023/10/21 17:27:37;;;;;;;14.98;6.22;;;;;;;;;;10289979;28;20065;-66
2023/10/21 17:32:36;;;;;;;22.40;8.85;;;;;;;;;;10287288;28;20500;-65
2023/10/21 17:37:35;;;;;;;23.00;6.90;;;;;;;;;;10291717;28;20490;-65
2023/10/21 17:42:33;;;;;;;13.90;6.28;;;;;;;;;;10291222;28;20083;-65
2023/10/21 17:47:31;;;;;;;18.92;8.00;;;;;;;;;;10287829;28;20065;-66
2023/10/21 17:52:31;;;;;;;10.85;3.58;;;;;;;;;;10290010;28;20142;-66
2023/10/21 17:57:30;;;;;;;13.48;3.97;;;;;;;;;;10280864;28;20081;-66
2023/10/21 18:02:30;;;;;;;11.52;3.70;;;;;;;;;;10288434;28;20451;-65
2023/10/21 18:07:28;;;;;;;13.60;4.75;;;;;;;;;;10283574;28;20075;-66
2023/10/21 18:12:28;;;;;;;15.27;4.82;;;;;;;;;;10280277;28;20072;-66
2023/10/21 18:17:27;;;;;;;13.68;4.63;;;;;;;;;;10281362;28;20081;-65
2023/10/21 18:22:25;;;;;;;15.23;3.80;;;;;;;;;;10291241;28;20539;-65
2023/10/21 18:27:24;;;;;;;18.00;4.47;;;;;;;;;;10287195;28;20080;-65
2023/10/21 18:32:24;;;;;;;12.10;3.70;;;;;;;;;;10289278;28;20189;-65
2023/10/21 18:37:25;;;;;;;8.27;3.30;;;;;;;;;;10275890;28;20072;-66
2023/10/21 18:42:23;;;;;;;13.32;3.67;;;;;;;;;;10283417;28;20068;-65
2023/10/21 18:47:21;;;;;;;10.05;4.05;;;;;;;;;;10277701;28;20111;-65
2023/10/21 18:52:21;;;;;;;10.80;4.68;;;;;;;;;;10275444;28;20083;-65
2023/10/21 18:57:19;;;;;;;15.55;3.83;;;;;;;;;;10288874;28;20081;-65
2023/10/21 19:02:18;;;;;;;12.18;4.15;;;;;;;;;;10272820;28;20083;-66
2023/10/21 19:07:16;;;;;;;8.60;3.47;;;;;;;;;;10269088;28;20073;-65
2023/10/21 19:12:16;;;;;;;10.10;3.58;;;;;;;;;;10275936;28;20076;-65
2023/10/21 19:17:14;;;;;;;12.80;4.95;;;;;;;;;;10279002;28;20095;-65
2023/10/21 19:22:13;;;;;;;11.65;4.10;;;;;;;;;;10276986;28;20076;-65
2023/10/21 19:27:11;;;;;;;11.18;3.58;;;;;;;;;;10287134;28;20076;-66
2023/10/21 19:32:11;;;;;;;10.30;3.50;;;;;;;;;;10289425;28;20526;-65
2023/10/21 19:37:09;;;;;;;8.57;3.20;;;;;;;;;;10285754;28;20457;-65
2023/10/21 19:42:07;;;;;;;17.83;4.30;;;;;;;;;;10283646;28;20076;-65
2023/10/21 19:47:07;;;;;;;8.07;3.13;;;;;;;;;;10280464;28;20079;-64
2023/10/21 19:52:06;;;;;;;7.65;3.60;;;;;;;;;;10287882;28;20071;-65
2023/10/21 19:57:05;;;;;;;10.30;4.18;;;;;;;;;;10280676;28;20088;-66
2023/10/21 20:02:03;;;;;;;17.35;3.92;;;;;;;;;;10285515;28;20080;-66
2023/10/21 20:07:01;;;;;;;15.57;4.63;;;;;;;;;;10283893;28;20478;-66
2023/10/21 20:12:01;;;;;;;11.73;4.15;;;;;;;;;;10295839;28;20126;-66
2023/10/21 20:16:59;;;;;;;9.90;4.18;;;;;;;;;;10296012;28;20091;-65
2023/10/21 20:21:57;;;;;;;10.32;4.38;;;;;;;;;;10295233;28;20104;-65
2023/10/21 20:26:56;;;;;;;11.93;5.03;;;;;;;;;;10284551;28;20083;-65
2023/10/21 20:31:55;;;;;;;14.77;3.72;;;;;;;;;;10292120;28;20514;-66
2023/10/21 20:36:53;;;;;;;11.00;3.85;;;;;;;;;;10290613;28;20529;-66
2023/10/21 20:41:54;;;;;;;12.88;3.83;;;;;;;;;;10291453;28;20294;-65
2023/10/21 20:46:52;;;;;;;9.50;3.72;;;;;;;;;;10294989;28;20072;-66
2023/10/21 20:51:52;;;;;;;10.13;3.90;;;;;;;;;;10292954;28;20167;-66
2023/10/21 20:56:51;;;;;;;7.70;3.38;;;;;;;;;;10285620;28;20526;-66
2023/10/21 21:01:49;;;;;;;14.40;3.75;;;;;;;;;;10287984;28;20068;-65
2023/10/21 21:06:48;;;;;;;9.25;3.70;;;;;;;;;;10282908;28;20091;-66
2023/10/21 21:11:51;;;;;;;10.63;4.35;;;;;;;;;;10287104;28;20095;-65
2023/10/21 21:16:49;;;;;;;10.17;3.27;;;;;;;;;;10288653;28;20518;-65
2023/10/21 21:21:48;;;;;;;13.70;4.18;;;;;;;;;;10292823;28;20064;-65
2023/10/21 21:26:48;;;;;;;7.90;4.32;;;;;;;;;;10293562;28;20103;-65
2023/10/21 21:31:46;;;;;;;11.68;4.32;;;;;;;;;;10292552;28;20102;-66
2023/10/21 21:36:44;;;;;;;8.73;3.78;;;;;;;;;;10292098;28;20072;-66
2023/10/21 21:41:44;;;;;;;6.90;3.70;;;;;;;;;;10289107;28;20087;-66
2023/10/21 21:46:44;;;;;;;13.70;5.05;;;;;;;;;;10290706;28;20061;-66
2023/10/21 21:51:42;;;;;;;10.13;4.90;;;;;;;;;;10290915;28;20068;-66
2023/10/21 21:56:40;;;;;;;11.95;3.70;;;;;;;;;;10292455;28;20080;-66
2023/10/21 22:01:41;;;;;;;11.93;4.40;;;;;;;;;;10293951;28;20079;-66
2023/10/21 22:06:41;;;;;;;9.65;4.00;;;;;;;;;;10287459;28;20069;-65
2023/10/21 22:11:39;;;;;;;14.68;4.18;;;;;;;;;;10289681;28;20068;-65
2023/10/21 22:16:38;;;;;;;8.85;3.67;;;;;;;;;;10288204;28;20480;-65
2023/10/21 22:21:36;;;;;;;8.38;3.85;;;;;;;;;;10288495;28;20080;-65
2023/10/21 22:26:44;;;;;;;13.95;3.90;;;;;;;;;;10288776;28;20069;-65
2023/10/21 22:31:43;;;;;;;9.88;3.70;;;;;;;;;;10289668;28;20443;-65
2023/10/21 22:36:42;;;;;;;19.83;3.70;;;;;;;;;;10290098;28;20064;-65
2023/10/21 22:41:41;;;;;;;12.88;4.95;;;;;;;;;;10285779;28;20654;-65
2023/10/21 22:46:40;;;;;;;12.88;3.83;;;;;;;;;;10284694;28;20064;-65
2023/10/21 22:51:38;;;;;;;12.68;3.92;;;;;;;;;;10285030;28;20064;-65
2023/10/21 22:56:37;;;;;;;11.45;3.60;;;;;;;;;;10284630;28;20071;-65
2023/10/21 23:01:36;;;;;;;10.68;3.80;;;;;;;;;;10284372;28;20524;-65
2023/10/21 23:06:35;;;;;;;11.65;4.43;;;;;;;;;;10285926;28;20064;-65
2023/10/21 23:11:33;;;;;;;8.77;3.50;;;;;;;;;;10283842;28;20131;-65
2023/10/21 23:16:31;;;;;;;12.38;3.60;;;;;;;;;;10288493;28;20081;-64
2023/10/21 23:21:33;;;;;;;12.20;3.65;;;;;;;;;;10285909;28;20068;-65
2023/10/21 23:26:31;;;;;;;18.27;3.70;;;;;;;;;;10284618;28;20082;-65
2023/10/21 23:31:29;;;;;;;12.07;4.47;;;;;;;;;;10288968;28;20068;-64
2023/10/21 23:36:28;;;;;;;9.95;3.67;;;;;;;;;;10287471;28;20076;-64
2023/10/21 23:41:28;;;;;;;9.90;2.80;;;;;;;;;;10288021;28;20075;-64
2023/10/21 23:46:26;;;;;;;12.52;3.95;;;;;;;;;;10291845;28;20068;-64
2023/10/21 23:51:25;;;;;;;12.07;3.67;;;;;;;;;;10293249;28;20060;-64
2023/10/21 23:56:23;;;;;;;10.23;4.05;;;;;;;;;;10294775;28;20079;-65
